createdAt,value
2023-02-04T00:00:10.177Z,4.90
2023-02-04T00:02:39.027Z,5.38
2023-02-04T00:05:06.577Z,5.32
2023-02-04T00:07:33.977Z,5.47
2023-02-04T00:10:01.794Z,5.35
2023-02-04T00:12:29.574Z,5.43
2023-02-04T00:14:57.149Z,4.88
2023-02-04T00:17:24.680Z,4.85
2023-02-04T00:19:52.232Z,5.07
2023-02-04T00:22:20.587Z,4.68
2023-02-04T00:24:50.021Z,4.35
2023-02-04T00:27:17.828Z,4.63
2023-02-04T00:29:45.377Z,5.15
2023-02-04T00:32:14.314Z,4.07
2023-02-04T00:34:42.048Z,4.40
2023-02-04T00:37:09.605Z,4.68
2023-02-04T00:39:38.510Z,4.30
2023-02-04T00:42:06.858Z,4.65
2023-02-04T00:44:36.863Z,4.28
2023-02-04T00:47:05.238Z,4.30
2023-02-04T00:49:34.350Z,4.40
2023-02-04T00:52:01.871Z,4.15
2023-02-04T00:54:29.293Z,4.20
2023-02-04T00:56:56.823Z,4.13
2023-02-04T00:59:24.273Z,3.42
2023-02-04T01:01:51.845Z,3.83
2023-02-04T01:04:19.371Z,3.83
2023-02-04T01:06:46.780Z,3.72
2023-02-04T01:09:14.317Z,3.47
2023-02-04T01:11:43.051Z,3.22
2023-02-04T01:14:10.675Z,3.40
2023-02-04T01:16:40.020Z,3.55
2023-02-04T01:19:07.551Z,3.30
2023-02-04T01:21:35.037Z,3.13
2023-02-04T01:24:02.529Z,3.50
2023-02-04T01:26:30.000Z,3.22
2023-02-04T01:28:57.458Z,3.10
2023-02-04T01:31:25.727Z,3.30
2023-02-04T01:33:53.183Z,3.45
2023-02-04T01:36:21.960Z,3.80
2023-02-04T01:38:50.268Z,3.30
2023-02-04T01:41:18.568Z,3.30
2023-02-04T01:43:49.646Z,3.60
2023-02-04T01:46:18.534Z,3.35
2023-02-04T01:48:47.513Z,3.72
2023-02-04T01:51:17.840Z,3.70
2023-02-04T01:53:45.346Z,3.40
2023-02-04T01:56:17.603Z,3.47
2023-02-04T01:58:45.121Z,3.33
2023-02-04T02:01:14.733Z,3.58
2023-02-04T02:03:42.681Z,3.22
2023-02-04T02:06:11.321Z,3.70
2023-02-04T02:08:38.733Z,3.65
2023-02-04T02:11:06.385Z,3.97
2023-02-04T02:13:33.915Z,4.05
2023-02-04T02:16:01.471Z,3.70
2023-02-04T02:18:29.019Z,3.40
2023-02-04T02:20:57.059Z,3.58
2023-02-04T02:23:47.983Z,3.45
2023-02-04T02:26:17.266Z,3.50
2023-02-04T02:28:45.572Z,3.55
2023-02-04T02:31:13.223Z,3.70
2023-02-04T02:33:40.752Z,3.92
2023-02-04T02:36:08.729Z,3.50
2023-02-04T02:38:36.240Z,3.55
2023-02-04T02:41:03.912Z,3.72
2023-02-04T02:43:31.640Z,3.22
2023-02-04T02:46:00.437Z,3.60
2023-02-04T02:48:28.071Z,3.55
2023-02-04T02:50:55.682Z,3.30
2023-02-04T02:53:23.306Z,3.10
2023-02-04T02:55:50.926Z,3.35
2023-02-04T02:58:28.529Z,3.65
2023-02-04T03:00:57.158Z,3.40
2023-02-04T03:03:31.192Z,3.40
2023-02-04T03:06:01.401Z,3.22
2023-02-04T03:08:29.073Z,3.20
2023-02-04T03:10:56.595Z,3.17
2023-02-04T03:13:24.539Z,3.15
2023-02-04T03:15:52.198Z,2.88
2023-02-04T03:18:20.973Z,3.20
2023-02-04T03:20:49.396Z,3.25
2023-02-04T03:23:17.018Z,3.22
2023-02-04T03:25:44.726Z,2.92
2023-02-04T03:28:12.185Z,3.38
2023-02-04T03:30:39.829Z,3.13
2023-02-04T03:33:07.346Z,3.30
2023-02-04T03:35:34.831Z,3.15
2023-02-04T03:38:02.275Z,3.30
2023-02-04T03:40:30.424Z,2.63
2023-02-04T03:42:57.998Z,3.03
2023-02-04T03:45:27.070Z,2.90
2023-02-04T03:47:55.989Z,2.85
2023-02-04T03:50:23.365Z,3.15
2023-02-04T03:52:52.597Z,3.10
2023-02-04T03:55:20.240Z,3.05
2023-02-04T03:57:47.717Z,3.05
2023-02-04T04:00:15.360Z,3.22
2023-02-04T04:02:42.912Z,3.08
2023-02-04T04:05:10.945Z,3.08
2023-02-04T04:07:38.435Z,2.92
2023-02-04T04:10:05.969Z,3.13
2023-02-04T04:12:33.496Z,3.00
2023-02-04T04:15:01.008Z,2.95
2023-02-04T04:17:28.540Z,2.92
2023-02-04T04:19:56.050Z,3.17
2023-02-04T04:22:23.682Z,3.25
2023-02-04T04:24:51.228Z,3.10
2023-02-04T04:27:18.694Z,2.92
2023-02-04T04:29:46.169Z,3.53
2023-02-04T04:32:13.644Z,3.17
2023-02-04T04:34:41.230Z,3.30
2023-02-04T04:37:08.698Z,3.22
2023-02-04T04:39:36.129Z,3.50
2023-02-04T04:42:03.620Z,3.40
2023-02-04T04:44:31.023Z,3.30
2023-02-04T04:46:58.576Z,2.90
2023-02-04T04:49:26.050Z,3.00
2023-02-04T04:51:53.549Z,2.70
2023-02-04T04:54:20.949Z,3.03
2023-02-04T04:56:48.509Z,3.45
2023-02-04T04:59:15.879Z,4.60
2023-02-04T05:01:43.385Z,4.18
2023-02-04T05:04:10.792Z,4.03
2023-02-04T05:06:38.274Z,3.63
2023-02-04T05:09:05.708Z,3.20
2023-02-04T05:11:33.526Z,3.05
2023-02-04T05:14:00.931Z,3.08
2023-02-04T05:16:28.442Z,7.70
2023-02-04T05:18:55.827Z,9.23
2023-02-04T05:21:23.427Z,7.70
2023-02-04T05:23:50.820Z,14.10
2023-02-04T05:26:29.530Z,4.80
2023-02-04T05:28:57.606Z,3.10
2023-02-04T05:31:25.007Z,2.70
2023-02-04T05:33:52.665Z,3.10
2023-02-04T05:36:20.066Z,3.05
2023-02-04T05:38:47.520Z,2.70
2023-02-04T05:41:14.973Z,2.92
2023-02-04T05:43:43.165Z,2.80
2023-02-04T05:46:10.615Z,2.35
2023-02-04T05:48:40.061Z,2.70
2023-02-04T05:51:07.591Z,2.70
2023-02-04T05:53:34.990Z,2.33
2023-02-04T05:56:02.547Z,2.50
2023-02-04T05:58:39.988Z,2.30
2023-02-04T06:01:07.633Z,2.47
2023-02-04T06:03:35.077Z,2.75
2023-02-04T06:06:02.578Z,2.63
2023-02-04T06:08:29.996Z,2.88
2023-02-04T06:10:57.542Z,2.75
2023-02-04T06:13:24.937Z,2.63
2023-02-04T06:15:52.539Z,2.65
2023-02-04T06:18:20.046Z,3.08
2023-02-04T06:20:47.513Z,2.70
2023-02-04T06:23:14.915Z,3.25
2023-02-04T06:25:42.348Z,3.33
2023-02-04T06:28:09.831Z,3.10
2023-02-04T06:30:37.971Z,3.22
2023-02-04T06:33:05.383Z,3.72
2023-02-04T06:35:32.789Z,4.07
2023-02-04T06:38:00.203Z,4.00
2023-02-04T06:40:27.696Z,3.97
2023-02-04T06:42:55.093Z,4.25
2023-02-04T06:45:22.508Z,4.13
2023-02-04T06:47:49.903Z,4.07
2023-02-04T06:50:18.908Z,3.40
2023-02-04T06:52:49.125Z,3.58
2023-02-04T06:55:17.582Z,4.30
2023-02-04T06:57:45.144Z,4.75
2023-02-04T07:00:12.978Z,4.13
2023-02-04T07:02:40.521Z,4.68
2023-02-04T07:05:07.995Z,5.10
2023-02-04T07:07:35.684Z,5.53
2023-02-04T07:10:03.260Z,5.40
2023-02-04T07:12:30.662Z,6.50
2023-02-04T07:14:58.188Z,7.40
2023-02-04T07:17:25.601Z,7.70
2023-02-04T07:19:53.155Z,9.35
2023-02-04T07:22:20.585Z,8.98
2023-02-04T07:24:48.069Z,9.43
2023-02-04T07:27:15.531Z,8.70
2023-02-04T07:29:42.953Z,8.88
2023-02-04T07:32:10.409Z,8.50
2023-02-04T07:34:37.809Z,7.63
2023-02-04T07:37:05.378Z,9.60
2023-02-04T07:39:32.794Z,7.97
2023-02-04T07:42:00.277Z,7.95
2023-02-04T07:44:34.460Z,7.25
2023-02-04T07:47:01.908Z,7.07
2023-02-04T07:49:29.296Z,7.45
2023-02-04T07:51:57.917Z,6.15
2023-02-04T07:54:25.340Z,6.40
2023-02-04T07:56:52.909Z,5.57
2023-02-04T07:59:20.408Z,7.00
2023-02-04T08:01:49.831Z,7.20
2023-02-04T08:04:17.269Z,6.72
2023-02-04T08:06:44.695Z,7.90
2023-02-04T08:09:12.172Z,8.05
2023-02-04T08:11:39.593Z,7.85
2023-02-04T08:14:06.995Z,8.57
2023-02-04T08:16:34.436Z,8.65
2023-02-04T08:19:01.955Z,8.57
2023-02-04T08:21:29.394Z,8.93
2023-02-04T08:23:56.889Z,8.35
2023-02-04T08:26:24.383Z,8.38
2023-02-04T08:28:51.777Z,7.82
2023-02-04T08:31:19.424Z,6.97
2023-02-04T08:33:46.923Z,8.20
2023-02-04T08:36:14.407Z,8.20
2023-02-04T08:38:41.806Z,7.05
2023-02-04T08:41:09.384Z,6.15
2023-02-04T08:43:37.120Z,6.25
2023-02-04T08:46:04.696Z,6.30
2023-02-04T08:48:32.099Z,5.57
2023-02-04T08:50:59.586Z,6.40
2023-02-04T08:53:26.980Z,6.47
2023-02-04T08:55:54.426Z,6.22
2023-02-04T08:58:21.845Z,6.00
2023-02-04T09:00:49.445Z,5.75
2023-02-04T09:03:16.960Z,6.50
2023-02-04T09:05:44.502Z,6.95
2023-02-04T09:08:11.949Z,6.57
2023-02-04T09:10:39.532Z,6.10
2023-02-04T09:13:09.211Z,5.65
2023-02-04T09:15:36.664Z,5.38
2023-02-04T09:18:16.353Z,5.40
2023-02-04T09:20:47.166Z,5.32
2023-02-04T09:23:14.675Z,5.32
2023-02-04T09:25:43.484Z,5.40
2023-02-04T09:28:12.606Z,5.72
2023-02-04T09:30:40.666Z,5.80
2023-02-04T09:33:08.182Z,6.45
2023-02-04T09:35:35.663Z,5.72
2023-02-04T09:38:03.470Z,5.60
2023-02-04T09:40:34.756Z,5.60
2023-02-04T09:43:02.913Z,5.93
2023-02-04T09:45:31.606Z,5.32
2023-02-04T09:47:59.808Z,5.40
2023-02-04T09:50:28.129Z,4.63
2023-02-04T09:52:58.152Z,5.60
2023-02-04T09:55:34.844Z,6.22
2023-02-04T09:58:02.717Z,6.32
2023-02-04T10:00:31.668Z,7.68
2023-02-04T10:03:01.105Z,6.88
2023-02-04T10:05:30.597Z,13.00
2023-02-04T10:07:58.819Z,13.98
2023-02-04T10:10:27.560Z,23.52
2023-02-04T10:12:56.950Z,20.52
2023-02-04T10:15:24.430Z,14.65
2023-02-04T10:17:56.684Z,12.27
2023-02-04T10:20:25.055Z,8.52
2023-02-04T10:22:54.290Z,8.77
2023-02-04T10:25:23.153Z,13.52
2023-02-04T10:27:50.663Z,7.85
2023-02-04T10:30:20.103Z,6.63
2023-02-04T10:32:47.832Z,7.88
2023-02-04T10:35:16.710Z,10.13
2023-02-04T10:37:44.564Z,8.00
2023-02-04T10:40:47.710Z,7.88
2023-02-04T10:43:24.339Z,8.00
2023-02-04T10:46:02.953Z,9.75
2023-02-04T10:48:30.999Z,10.02
2023-02-04T10:50:59.634Z,9.48
2023-02-04T10:53:46.529Z,10.25
2023-02-04T10:56:16.875Z,8.88
2023-02-04T10:58:44.493Z,9.05
2023-02-04T11:01:12.965Z,7.82
2023-02-04T11:03:41.339Z,7.18
2023-02-04T11:06:18.696Z,10.13
2023-02-04T11:08:46.311Z,7.50
2023-02-04T11:11:16.405Z,7.03
2023-02-04T11:13:45.434Z,10.00
2023-02-04T11:16:19.034Z,10.77
2023-02-04T11:18:52.440Z,7.75
2023-02-04T11:21:23.016Z,8.88
2023-02-04T11:23:50.720Z,8.63
2023-02-04T11:26:21.800Z,8.63
2023-02-04T11:29:01.597Z,8.13
2023-02-04T11:31:35.437Z,9.07
2023-02-04T11:34:21.729Z,10.60
2023-02-04T11:37:05.051Z,10.65
2023-02-04T11:39:39.999Z,9.80
2023-02-04T11:42:15.369Z,53.10
2023-02-04T11:44:42.871Z,25.67
2023-02-04T11:47:10.328Z,64.90
2023-02-04T11:49:37.917Z,73.43
2023-02-04T11:52:08.909Z,27.20
2023-02-04T11:54:37.245Z,17.95
2023-02-04T11:57:04.765Z,13.32
2023-02-04T11:59:32.527Z,8.55
2023-02-04T12:02:19.984Z,13.95
2023-02-04T12:04:54.943Z,128.68
2023-02-04T12:07:24.963Z,21.88
2023-02-04T12:09:52.550Z,11.35
2023-02-04T12:12:27.435Z,8.75
2023-02-04T12:14:59.434Z,10.57
2023-02-04T12:17:26.900Z,9.07
2023-02-04T12:19:54.291Z,11.13
2023-02-04T12:22:21.982Z,12.13
2023-02-04T12:24:49.532Z,8.38
2023-02-04T12:27:17.039Z,8.00
2023-02-04T12:29:44.621Z,8.07
2023-02-04T12:32:12.205Z,8.68
2023-02-04T12:34:39.845Z,8.27
2023-02-04T12:37:07.403Z,8.15
2023-02-04T12:39:34.855Z,7.60
2023-02-04T12:42:04.537Z,7.15
2023-02-04T12:44:32.187Z,7.50
2023-02-04T12:46:59.707Z,7.18
2023-02-04T12:49:27.273Z,8.23
2023-02-04T12:51:58.530Z,11.93
2023-02-04T12:54:26.192Z,14.75
2023-02-04T12:56:55.687Z,11.73
2023-02-04T12:59:23.056Z,8.85
2023-02-04T13:01:50.466Z,9.48
2023-02-04T13:04:17.961Z,8.57
2023-02-04T13:06:45.369Z,8.45
2023-02-04T13:09:12.765Z,8.35
2023-02-04T13:11:40.263Z,8.20
2023-02-04T13:14:07.698Z,9.63
2023-02-04T13:16:35.242Z,7.95
2023-02-04T13:19:02.652Z,9.82
2023-02-04T13:21:31.414Z,9.40
2023-02-04T13:23:59.829Z,9.35
2023-02-04T13:26:27.389Z,7.95
2023-02-04T13:28:54.898Z,7.43
2023-02-04T13:31:22.401Z,12.43
2023-02-04T13:33:49.902Z,10.43
2023-02-04T13:36:17.396Z,7.38
2023-02-04T13:38:45.164Z,11.13
2023-02-04T13:41:12.578Z,13.57
2023-02-04T13:43:40.182Z,9.73
2023-02-04T13:46:07.801Z,8.40
2023-02-04T13:48:36.648Z,9.32
2023-02-04T13:51:04.314Z,8.63
2023-02-04T13:53:31.852Z,10.02
2023-02-04T13:55:59.669Z,18.20
2023-02-04T13:58:27.093Z,13.55
2023-02-04T14:00:57.478Z,15.35
2023-02-04T14:03:25.740Z,24.58
2023-02-04T14:05:53.786Z,12.55
2023-02-04T14:08:21.688Z,17.00
2023-02-04T14:10:49.195Z,9.85
2023-02-04T14:13:16.644Z,14.10
2023-02-04T14:15:44.152Z,14.45
2023-02-04T14:18:12.049Z,20.98
2023-02-04T14:20:39.568Z,15.63
2023-02-04T14:23:07.244Z,18.67
2023-02-04T14:25:34.781Z,18.75
2023-02-04T14:28:02.373Z,13.63
2023-02-04T14:30:30.307Z,17.73
2023-02-04T14:32:58.003Z,14.90
2023-02-04T14:35:25.967Z,17.00
2023-02-04T14:37:53.477Z,11.35
2023-02-04T14:40:21.529Z,14.48
2023-02-04T14:42:49.002Z,15.45
2023-02-04T14:45:16.594Z,17.15
2023-02-04T14:47:44.094Z,15.15
2023-02-04T14:50:16.052Z,10.75
2023-02-04T14:52:43.564Z,11.85
2023-02-04T14:55:12.868Z,12.90
2023-02-04T14:57:40.337Z,13.05
2023-02-04T15:00:08.382Z,15.25
2023-02-04T15:02:36.032Z,15.60
2023-02-04T15:05:03.845Z,13.63
2023-02-04T15:07:31.244Z,12.00
2023-02-04T15:09:58.673Z,12.70
2023-02-04T15:12:26.218Z,13.20
2023-02-04T15:14:53.712Z,13.27
2023-02-04T15:17:21.145Z,11.20
2023-02-04T15:19:48.600Z,12.50
2023-02-04T15:22:16.280Z,13.00
2023-02-04T15:24:43.753Z,11.65
2023-02-04T15:27:11.255Z,11.18
2023-02-04T15:29:38.712Z,13.40
2023-02-04T15:32:06.962Z,13.68
2023-02-04T15:34:34.829Z,10.52
2023-02-04T15:37:02.317Z,15.45
2023-02-04T15:39:29.771Z,12.32
2023-02-04T15:41:57.318Z,11.02
2023-02-04T15:44:26.705Z,11.48
2023-02-04T15:46:54.668Z,12.55
2023-02-04T15:49:22.292Z,12.43
2023-02-04T15:51:49.704Z,13.18
2023-02-04T15:54:17.181Z,14.98
2023-02-04T15:56:44.658Z,11.65
2023-02-04T15:59:12.084Z,12.63
2023-02-04T16:01:39.707Z,14.38
2023-02-04T16:04:07.221Z,13.52
2023-02-04T16:06:34.698Z,13.45
2023-02-04T16:09:02.164Z,14.57
2023-02-04T16:11:29.722Z,13.07
2023-02-04T16:13:58.720Z,19.85
2023-02-04T16:16:26.403Z,18.58
2023-02-04T16:18:53.808Z,17.65
2023-02-04T16:21:21.307Z,22.00
2023-02-04T16:23:48.746Z,18.45
2023-02-04T16:26:16.518Z,21.08
2023-02-04T16:28:47.335Z,20.92
2023-02-04T16:31:15.556Z,22.13
2023-02-04T16:33:43.138Z,27.17
2023-02-04T16:36:12.830Z,20.05
2023-02-04T16:38:40.723Z,21.15
2023-02-04T16:41:08.205Z,19.08
2023-02-04T16:43:35.829Z,17.88
2023-02-04T16:46:03.535Z,16.45
2023-02-04T16:48:31.044Z,14.80
2023-02-04T16:50:58.479Z,16.17
2023-02-04T16:53:25.986Z,17.17
2023-02-04T16:55:53.481Z,16.15
2023-02-04T16:58:20.957Z,18.10
2023-02-04T17:00:50.273Z,18.02
2023-02-04T17:03:17.827Z,17.73
2023-02-04T17:05:45.324Z,17.30
2023-02-04T17:08:15.164Z,30.13
2023-02-04T17:11:01.152Z,22.38
2023-02-04T17:13:29.232Z,18.40
2023-02-04T17:16:00.957Z,17.38
2023-02-04T17:18:29.863Z,21.50
2023-02-04T17:20:57.448Z,17.00
2023-02-04T17:23:24.933Z,22.40
2023-02-04T17:25:52.337Z,18.55
2023-02-04T17:28:19.909Z,16.27
2023-02-04T17:30:47.458Z,17.80
2023-02-04T17:33:15.236Z,20.10
2023-02-04T17:35:42.907Z,16.92
2023-02-04T17:38:10.441Z,17.48
2023-02-04T17:40:37.980Z,17.67
2023-02-04T17:43:07.460Z,20.40
2023-02-04T17:45:35.952Z,18.65
2023-02-04T17:48:05.136Z,19.98
2023-02-04T17:53:09.037Z,18.55
2023-02-04T17:55:38.088Z,16.45
2023-02-04T17:58:12.648Z,18.00
2023-02-04T18:00:40.557Z,16.07
2023-02-04T18:03:11.860Z,16.80
2023-02-04T18:05:42.470Z,18.38
2023-02-04T18:08:24.686Z,18.92
2023-02-04T18:10:53.417Z,14.20
2023-02-04T18:13:22.392Z,17.25
2023-02-04T18:15:51.398Z,18.73
2023-02-04T18:18:27.834Z,23.50
2023-02-04T18:21:14.680Z,19.25
2023-02-04T18:23:43.023Z,20.45
2023-02-04T18:26:16.632Z,24.92
2023-02-04T18:28:48.468Z,20.48
2023-02-04T18:31:26.045Z,17.90
2023-02-04T18:33:53.630Z,19.67
2023-02-04T18:36:23.149Z,21.30
2023-02-04T18:38:51.328Z,21.17
2023-02-04T18:41:18.706Z,23.00
2023-02-04T18:43:50.621Z,21.20
2023-02-04T18:46:24.701Z,21.25
2023-02-04T18:48:52.292Z,21.83
2023-02-04T18:51:24.664Z,21.27
2023-02-04T18:53:52.408Z,22.13
2023-02-04T18:56:19.788Z,23.10
2023-02-04T18:58:51.353Z,23.35
2023-02-04T19:01:24.094Z,24.35
2023-02-04T19:03:51.608Z,23.35
2023-02-04T19:06:25.592Z,24.30
2023-02-04T19:08:53.716Z,24.55
2023-02-04T19:11:34.493Z,22.70
2023-02-04T19:14:02.762Z,22.20
2023-02-04T19:16:36.747Z,26.23
2023-02-04T19:19:09.894Z,24.60
2023-02-04T19:21:37.407Z,23.17
2023-02-04T19:24:25.190Z,24.60
2023-02-04T19:26:58.853Z,25.80
2023-02-04T19:29:28.698Z,23.20
2023-02-04T19:31:59.938Z,26.60
2023-02-04T19:34:34.356Z,24.50
2023-02-04T19:37:01.797Z,25.27
2023-02-04T19:39:38.726Z,25.38
2023-02-04T19:42:25.386Z,24.95
2023-02-04T19:44:53.153Z,24.40
2023-02-04T19:47:25.043Z,20.33
2023-02-04T19:49:56.473Z,23.63
2023-02-04T19:52:33.337Z,22.13
2023-02-04T19:55:18.465Z,20.98
2023-02-04T19:57:49.118Z,21.35
2023-02-04T20:00:25.139Z,21.42
2023-02-04T20:02:52.588Z,19.95
2023-02-04T20:05:21.510Z,20.00
2023-02-04T20:07:49.072Z,19.90
2023-02-04T20:10:26.887Z,18.05
2023-02-04T20:13:01.288Z,18.73
2023-02-04T20:15:29.124Z,19.05
2023-02-04T20:17:58.294Z,17.17
2023-02-04T20:20:30.883Z,19.42
2023-02-04T20:23:02.569Z,16.88
2023-02-04T20:25:45.124Z,14.27
2023-02-04T20:28:15.774Z,15.15
2023-02-04T20:30:43.748Z,14.50
2023-02-04T20:33:21.608Z,12.50
2023-02-04T20:36:09.120Z,11.95
2023-02-04T20:38:36.673Z,11.15
2023-02-04T20:41:13.964Z,9.77
2023-02-04T20:43:42.117Z,10.20
2023-02-04T20:46:15.907Z,9.80
2023-02-04T20:48:44.453Z,9.98
2023-02-04T20:51:38.058Z,10.02
2023-02-04T20:54:12.143Z,8.75
2023-02-04T20:56:41.111Z,9.70
2023-02-04T20:59:28.357Z,9.30
2023-02-04T21:01:56.280Z,8.73
2023-02-04T21:04:23.889Z,8.50
2023-02-04T21:06:52.376Z,8.10
2023-02-04T21:09:24.317Z,8.98
2023-02-04T21:11:52.396Z,7.75
2023-02-04T21:14:19.910Z,8.02
2023-02-04T21:16:47.879Z,6.60
2023-02-04T21:19:16.121Z,7.22
2023-02-04T21:21:43.757Z,7.43
2023-02-04T21:24:12.436Z,7.43
2023-02-04T21:26:40.204Z,7.28
2023-02-04T21:29:07.817Z,7.45
2023-02-04T21:31:35.358Z,7.13
2023-02-04T21:34:02.925Z,7.00
2023-02-04T21:36:30.368Z,7.40
2023-02-04T21:38:58.045Z,7.10
2023-02-04T21:41:25.749Z,7.78
2023-02-04T21:43:53.796Z,7.47
2023-02-04T21:46:22.688Z,7.10
2023-02-04T21:48:50.419Z,7.75
2023-02-04T21:51:17.905Z,7.00
2023-02-04T21:53:45.423Z,8.10
2023-02-04T21:56:14.246Z,7.85
2023-02-04T21:58:41.714Z,8.05
2023-02-04T22:01:13.152Z,8.50
2023-02-04T22:03:41.127Z,7.22
2023-02-04T22:06:08.874Z,8.38
2023-02-04T22:08:36.393Z,7.15
2023-02-04T22:11:03.872Z,6.95
2023-02-04T22:13:31.297Z,6.25
2023-02-04T22:15:58.825Z,7.90
2023-02-04T22:18:26.394Z,7.05
2023-02-04T22:20:53.833Z,7.97
2023-02-04T22:23:21.224Z,7.30
2023-02-04T22:25:48.685Z,7.40
2023-02-04T22:28:16.236Z,6.40
2023-02-04T22:30:43.795Z,5.75
2023-02-04T22:33:14.046Z,6.50
2023-02-04T22:35:41.598Z,6.20
2023-02-04T22:38:09.188Z,5.38
2023-02-04T22:40:36.631Z,7.13
2023-02-04T22:43:04.868Z,5.95
2023-02-04T22:45:32.730Z,6.68
2023-02-04T22:48:00.296Z,5.22
2023-02-04T22:50:27.770Z,5.68
2023-02-04T22:52:55.145Z,5.95
2023-02-04T22:55:22.675Z,5.22
2023-02-04T22:57:50.162Z,5.68
2023-02-04T23:00:17.832Z,6.10
2023-02-04T23:02:45.314Z,5.05
2023-02-04T23:05:12.775Z,6.38
2023-02-04T23:07:40.338Z,5.85
2023-02-04T23:10:08.003Z,5.57
2023-02-04T23:12:35.499Z,5.47
2023-02-04T23:15:02.958Z,5.75
2023-02-04T23:17:30.485Z,5.13
2023-02-04T23:19:57.930Z,5.30
2023-02-04T23:22:25.446Z,5.28
2023-02-04T23:24:52.928Z,4.68
2023-02-04T23:27:20.523Z,4.05
2023-02-04T23:29:48.035Z,4.55
2023-02-04T23:32:15.569Z,5.10
2023-02-04T23:34:43.006Z,5.30
2023-02-04T23:37:10.462Z,5.32
2023-02-04T23:39:37.922Z,4.53
2023-02-04T23:42:05.441Z,5.40
2023-02-04T23:44:32.987Z,5.07
2023-02-04T23:47:00.436Z,3.72
2023-02-04T23:49:27.901Z,6.22
2023-02-04T23:51:55.512Z,5.20
2023-02-04T23:54:23.718Z,5.85
2023-02-04T23:56:52.115Z,5.70
2023-02-04T23:59:19.569Z,4.95
